Time;durP1;ratioP1;P1;durP2;ratioP2;P2;SDS_P1;SDS_P2;PMS_P1;PMS_P2;Temp;Humidity;BMP_temperature;BMP_pressure;BME280_temperature;BME280_humidity;BME280_pressure;Samples;Min_cycle;Max_cycle;Signal;HPM_P1;HPM_P2
2021/06/01 00:00:42;;;;;;;4.03;2.17;;;18.10;52.50;;;;;;4952876;29;20050;-78
2021/06/01 00:03:08;;;;;;;5.43;2.40;;;18.10;52.80;;;;;;4936318;29;20015;-78
2021/06/01 00:05:34;;;;;;;5.75;3.25;;;18.10;52.90;;;;;;4952138;29;20483;-78
2021/06/01 00:07:59;;;;;;;4.88;2.75;;;18.00;53.20;;;;;;4951435;28;20732;-77
2021/06/01 00:10:25;;;;;;;6.93;2.42;;;18.00;53.30;;;;;;4956921;29;20027;-77
2021/06/01 00:12:51;;;;;;;2.53;1.77;;;18.00;53.10;;;;;;4956040;29;20031;-77
2021/06/01 00:15:16;;;;;;;3.05;1.58;;;17.90;53.00;;;;;;4956570;29;20024;-77
2021/06/01 00:17:42;;;;;;;2.83;1.40;;;17.90;53.10;;;;;;4938968;29;20031;-76
2021/06/01 00:20:10;;;;;;;2.00;1.23;;;17.90;53.10;;;;;;4957066;29;20475;-77
2021/06/01 00:22:37;;;;;;;2.40;1.77;;;17.90;53.00;;;;;;4939514;29;20023;-76
2021/06/01 00:25:04;;;;;;;3.08;2.10;;;17.80;53.00;;;;;;4955804;29;20031;-77
2021/06/01 00:27:29;;;;;;;3.25;1.85;;;17.80;52.80;;;;;;4958499;28;20023;-77
2021/06/01 00:29:55;;;;;;;4.07;2.00;;;17.80;52.70;;;;;;4958951;28;20027;-76
2021/06/01 00:32:21;;;;;;;3.35;1.77;;;17.80;52.80;;;;;;4976277;28;20535;-78
2021/06/01 00:34:46;;;;;;;2.17;1.50;;;17.70;52.80;;;;;;4975342;28;20026;-78
2021/06/01 00:37:12;;;;;;;5.43;1.50;;;17.80;52.80;;;;;;4975764;28;20114;-77
2021/06/01 00:39:37;;;;;;;2.85;1.52;;;17.70;52.80;;;;;;4975720;28;20078;-77
2021/06/01 00:42:04;;;;;;;1.83;1.25;;;17.70;52.70;;;;;;4974854;28;20051;-77
2021/06/01 00:44:29;;;;;;;2.63;1.90;;;17.70;53.40;;;;;;4975475;28;20073;-77
2021/06/01 00:46:55;;;;;;;2.90;1.40;;;17.60;53.40;;;;;;4974708;28;20105;-77
2021/06/01 00:49:21;;;;;;;4.20;1.52;;;17.70;53.40;;;;;;4975257;28;20030;-77
2021/06/01 00:51:47;;;;;;;1.88;1.45;;;17.60;53.10;;;;;;4957736;28;20036;-77
2021/06/01 00:54:12;;;;;;;3.08;1.48;;;17.60;53.00;;;;;;4975581;28;20050;-78
2021/06/01 00:56:40;;;;;;;2.97;2.03;;;17.60;53.30;;;;;;4974169;28;20455;-77
2021/06/01 00:59:06;;;;;;;3.00;1.77;;;17.60;53.60;;;;;;4973369;28;20027;-77
2021/06/01 01:01:32;;;;;;;2.88;1.70;;;17.50;53.40;;;;;;4975267;28;20057;-78
2021/06/01 01:03:58;;;;;;;2.25;1.50;;;17.50;53.70;;;;;;4974599;28;20436;-76
2021/06/01 01:06:47;;;;;;;3.28;1.50;;;17.50;53.70;;;;;;4975091;28;20101;-77
2021/06/01 01:09:16;;;;;;;2.15;1.33;;;17.50;53.70;;;;;;4957719;28;20539;-78
2021/06/01 01:11:55;;;;;;;3.28;1.27;;;17.40;53.50;;;;;;4973971;28;20034;-78
2021/06/01 01:14:40;;;;;;;3.35;1.30;;;17.40;53.60;;;;;;4975083;28;20037;-77
2021/06/01 01:17:13;;;;;;;2.35;1.33;;;17.40;53.30;;;;;;4973255;28;20030;-77
2021/06/01 01:20:04;;;;;;;2.03;1.08;;;17.40;53.30;;;;;;4973424;28;20031;-78
2021/06/01 01:22:36;;;;;;;2.55;1.00;;;17.30;53.20;;;;;;4975080;28;20363;-77
2021/06/01 01:25:13;;;;;;;;;;;17.30;53.20;;;;;;4957287;28;20516;-78
2021/06/01 01:27:47;;;;;;;2.22;1.60;;;17.30;53.30;;;;;;4975368;28;19906;-77
2021/06/01 01:30:16;;;;;;;2.47;1.30;;;17.30;53.30;;;;;;4974809;28;20019;-78
2021/06/01 01:33:00;;;;;;;2.17;1.20;;;17.30;53.30;;;;;;4974775;28;20513;-78
2021/06/01 01:35:29;;;;;;;4.43;1.30;;;17.30;53.40;;;;;;4957353;28;20023;-78
2021/06/01 01:37:59;;;;;;;1.80;1.23;;;17.20;53.20;;;;;;4974271;28;20195;-77
2021/06/01 01:40:29;;;;;;;2.30;1.20;;;17.20;53.70;;;;;;4973530;28;20027;-78
2021/06/01 01:43:03;;;;;;;3.25;1.45;;;17.20;53.70;;;;;;4974207;28;20034;-77
2021/06/01 01:45:30;;;;;;;2.65;1.40;;;17.20;53.90;;;;;;4975356;28;20105;-77
2021/06/01 01:50:47;;;;;;;4.72;1.40;;;17.10;53.60;;;;;;4974607;28;20558;-76
2021/06/01 01:53:15;;;;;;;2.10;1.30;;;17.10;53.50;;;;;;4973285;28;20031;-76
2021/06/01 01:55:45;;;;;;;2.42;1.10;;;17.00;53.50;;;;;;4974570;28;20029;-77
2021/06/01 01:58:12;;;;;;;1.67;1.10;;;17.00;53.60;;;;;;4973860;28;20027;-77
2021/06/01 02:00:38;;;;;;;2.85;1.50;;;17.00;53.90;;;;;;4972920;28;20030;-77
2021/06/01 02:03:05;;;;;;;1.77;1.10;;;16.90;53.80;;;;;;4972273;28;20114;-76
2021/06/01 02:05:31;;;;;;;1.75;1.15;;;16.90;53.90;;;;;;4972916;28;20019;-77
2021/06/01 02:07:57;;;;;;;5.10;1.50;;;16.80;53.80;;;;;;4956011;28;20114;-77
2021/06/01 02:10:23;;;;;;;1.67;1.15;;;16.80;54.20;;;;;;4973952;28;20062;-77
2021/06/01 02:12:49;;;;;;;3.45;1.20;;;16.80;54.50;;;;;;4973986;28;20081;-78
2021/06/01 02:15:15;;;;;;;2.50;1.40;;;16.80;54.50;;;;;;4956677;28;20168;-77
2021/06/01 02:17:40;;;;;;;4.32;1.40;;;16.70;54.50;;;;;;4956670;28;20101;-77
2021/06/01 02:20:07;;;;;;;3.78;1.42;;;16.70;55.00;;;;;;4973116;28;20368;-78
2021/06/01 02:25:29;;;;;;;2.40;1.33;;;16.70;55.10;;;;;;4972953;28;20302;-77
2021/06/01 02:28:26;;;;;;;2.75;1.38;;;16.70;55.20;;;;;;4954883;28;20502;-76
2021/06/01 02:31:01;;;;;;;2.13;1.30;;;16.60;54.90;;;;;;4955762;28;20034;-77
2021/06/01 02:33:31;;;;;;;2.60;1.27;;;16.60;55.40;;;;;;4973382;28;20030;-77
2021/06/01 02:36:00;;;;;;;3.15;1.42;;;16.60;55.50;;;;;;4972862;28;20480;-77
2021/06/01 02:38:30;;;;;;;2.03;1.40;;;16.50;55.40;;;;;;4971990;28;20031;-76
2021/06/01 02:40:56;;;;;;;2.17;1.48;;;16.50;55.20;;;;;;4972928;28;20546;-76
2021/06/01 02:43:21;;;;;;;2.58;1.42;;;16.50;55.30;;;;;;4988545;28;20570;-78
2021/06/01 02:45:48;;;;;;;3.10;1.30;;;16.40;55.10;;;;;;4973371;28;20460;-78
2021/06/01 02:48:17;;;;;;;1.65;1.30;;;16.40;55.10;;;;;;4972451;28;20122;-77
2021/06/01 02:50:43;;;;;;;4.30;1.75;;;16.40;55.10;;;;;;4973510;28;20034;-76
2021/06/01 02:53:11;;;;;;;2.70;1.50;;;16.30;55.20;;;;;;4955409;28;20539;-76
2021/06/01 02:55:38;;;;;;;2.95;1.65;;;16.40;55.30;;;;;;4988225;28;20065;-77
2021/06/01 02:58:07;;;;;;;5.63;1.55;;;16.30;55.50;;;;;;4972504;28;20023;-77
2021/06/01 03:00:35;;;;;;;1.77;1.15;;;16.30;56.00;;;;;;4972227;28;20034;-77
2021/06/01 03:03:12;;;;;;;3.22;1.40;;;16.30;56.10;;;;;;4972509;28;20118;-77
2021/06/01 03:05:39;;;;;;;2.38;1.40;;;16.20;56.40;;;;;;4988480;28;20058;-77
2021/06/01 03:08:28;;;;;;;2.83;1.60;;;16.10;56.50;;;;;;4972438;28;20058;-77
2021/06/01 03:11:00;;;;;;;3.20;1.48;;;16.20;56.50;;;;;;4971563;28;20035;-77
2021/06/01 03:13:26;;;;;;;3.42;1.58;;;16.10;56.50;;;;;;4973315;28;20114;-76
2021/06/01 03:15:52;;;;;;;3.72;1.77;;;16.10;56.40;;;;;;4988077;28;20493;-78
2021/06/01 03:18:19;;;;;;;2.33;1.30;;;16.10;57.20;;;;;;4987452;28;20051;-76
2021/06/01 03:20:45;;;;;;;2.95;1.70;;;16.10;56.60;;;;;;4972876;28;20443;-77
2021/06/01 03:23:12;;;;;;;3.28;1.55;;;16.10;56.80;;;;;;4972590;28;20015;-76
2021/06/01 03:25:38;;;;;;;5.35;1.40;;;16.00;57.00;;;;;;4975323;28;20402;-77
2021/06/01 03:28:04;;;;;;;4.00;1.58;;;16.00;57.20;;;;;;4991421;28;20116;-77
2021/06/01 03:30:30;;;;;;;3.45;1.45;;;15.90;57.10;;;;;;4991130;28;20030;-76
2021/06/01 03:32:56;;;;;;;3.38;1.38;;;15.90;57.40;;;;;;4991807;28;20364;-78
2021/06/01 03:35:24;;;;;;;2.63;1.50;;;15.90;57.30;;;;;;4992331;28;20024;-76
2021/06/01 03:37:50;;;;;;;4.53;1.42;;;15.90;57.50;;;;;;4991056;28;20034;-77
2021/06/01 03:40:17;;;;;;;5.22;1.40;;;15.90;57.50;;;;;;4991801;28;20026;-77
2021/06/01 03:42:42;;;;;;;3.08;1.40;;;15.90;57.50;;;;;;4992298;28;20030;-77
2021/06/01 03:45:09;;;;;;;2.45;1.30;;;15.90;57.50;;;;;;4994734;28;20027;-77
2021/06/01 03:47:35;;;;;;;2.60;1.50;;;15.80;57.40;;;;;;4995953;28;20033;-77
2021/06/01 03:50:00;;;;;;;3.72;1.60;;;15.80;57.60;;;;;;4977988;28;20035;-77
2021/06/01 03:52:26;;;;;;;2.25;1.40;;;15.90;57.90;;;;;;4978648;28;20018;-76
2021/06/01 03:54:52;;;;;;;3.22;1.50;;;15.80;58.20;;;;;;4987654;28;20472;-76
2021/06/01 03:57:17;;;;;;;2.65;1.55;;;15.80;58.70;;;;;;4958118;28;20033;-77
2021/06/01 03:59:43;;;;;;;2.30;1.27;;;15.80;59.00;;;;;;4958622;28;20058;-76
2021/06/01 04:02:09;;;;;;;2.00;1.38;;;15.80;59.00;;;;;;4957969;28;20506;-75
2021/06/01 04:04:35;;;;;;;2.45;1.50;;;15.80;59.20;;;;;;4976437;28;20031;-76
2021/06/01 04:07:02;;;;;;;3.80;1.65;;;15.80;59.30;;;;;;4973008;28;20034;-76
2021/06/01 04:09:28;;;;;;;4.35;1.60;;;15.80;59.30;;;;;;4949660;28;20360;-75
2021/06/01 04:11:54;;;;;;;3.13;1.50;;;15.80;59.10;;;;;;4949708;28;20043;-76
2021/06/01 04:14:20;;;;;;;1.70;1.30;;;15.80;59.30;;;;;;4946086;28;20019;-75
2021/06/01 04:16:46;;;;;;;3.88;1.70;;;15.80;59.50;;;;;;4956924;29;20027;-75
2021/06/01 04:19:13;;;;;;;5.78;2.58;;;15.80;59.70;;;;;;4938967;29;20515;-76
2021/06/01 04:21:41;;;;;;;5.68;2.83;;;15.70;59.90;;;;;;4939761;29;20057;-76
2021/06/01 04:24:08;;;;;;;5.32;2.33;;;15.80;59.90;;;;;;4939034;29;20480;-77
2021/06/01 04:26:33;;;;;;;3.80;1.90;;;15.70;60.10;;;;;;4939336;29;20062;-75
2021/06/01 04:28:59;;;;;;;4.43;1.70;;;15.70;60.10;;;;;;4956531;29;20024;-75
2021/06/01 04:31:25;;;;;;;3.17;1.70;;;15.70;60.10;;;;;;4956554;29;20473;-75
2021/06/01 04:33:51;;;;;;;5.03;2.00;;;15.70;60.30;;;;;;4939269;29;20015;-75
2021/06/01 04:36:16;;;;;;;4.13;1.80;;;15.80;60.60;;;;;;4955958;29;20027;-75
2021/06/01 04:38:42;;;;;;;3.40;1.80;;;15.80;60.50;;;;;;4939413;29;20031;-75
2021/06/01 04:41:08;;;;;;;3.20;1.50;;;15.80;60.50;;;;;;4938548;29;20058;-76
2021/06/01 04:43:33;;;;;;;2.95;1.50;;;15.80;60.70;;;;;;4956391;29;20486;-76
2021/06/01 04:45:59;;;;;;;4.22;1.65;;;15.80;61.10;;;;;;4939157;29;20022;-75
2021/06/01 04:48:25;;;;;;;3.10;1.48;;;15.80;61.30;;;;;;4938257;29;20460;-75
2021/06/01 04:50:50;;;;;;;3.40;1.27;;;15.80;61.20;;;;;;4938990;29;20058;-74
2021/06/01 04:53:16;;;;;;;4.22;1.90;;;15.80;61.20;;;;;;4956057;29;20027;-74
2021/06/01 04:55:42;;;;;;;3.15;1.70;;;15.80;61.30;;;;;;4937360;29;20083;-77
2021/06/01 04:58:07;;;;;;;3.47;1.55;;;15.80;61.40;;;;;;4953149;29;20106;-75
2021/06/01 05:00:33;;;;;;;3.03;2.08;;;15.80;61.40;;;;;;4953774;29;20110;-75
2021/06/01 05:02:59;;;;;;;3.75;2.28;;;15.80;61.50;;;;;;4953660;29;20035;-75
2021/06/01 05:05:25;;;;;;;3.35;1.83;;;15.90;61.60;;;;;;4953190;29;20444;-75
2021/06/01 05:07:52;;;;;;;4.65;1.92;;;15.90;61.60;;;;;;4936541;29;20066;-76
2021/06/01 05:10:17;;;;;;;3.60;1.88;;;15.90;61.60;;;;;;4934986;29;20027;-76
2021/06/01 05:12:43;;;;;;;3.47;1.65;;;15.90;61.50;;;;;;4938328;29;20027;-75
2021/06/01 05:15:10;;;;;;;3.85;1.85;;;15.90;61.40;;;;;;4954851;29;20054;-76
2021/06/01 05:17:35;;;;;;;5.00;1.75;;;15.90;61.30;;;;;;4938435;29;20060;-75
2021/06/01 05:20:01;;;;;;;3.88;1.77;;;16.00;61.00;;;;;;4955301;29;20063;-75
2021/06/01 05:22:27;;;;;;;4.65;1.60;;;16.00;60.30;;;;;;4937437;29;20034;-75
2021/06/01 05:24:52;;;;;;;4.05;2.00;;;16.00;59.90;;;;;;4955689;29;20396;-75
2021/06/01 05:27:18;;;;;;;4.38;1.70;;;16.00;60.00;;;;;;4953273;29;20100;-75
2021/06/01 05:29:49;;;;;;;4.07;2.05;;;16.00;60.00;;;;;;4955515;29;20106;-76
2021/06/01 05:35:01;;;;;;;3.38;1.70;;;16.10;60.50;;;;;;4955147;29;20081;-75
2021/06/01 05:37:29;;;;;;;3.53;2.00;;;16.10;60.70;;;;;;4937753;29;20027;-74
2021/06/01 05:39:55;;;;;;;3.17;1.60;;;16.20;61.00;;;;;;4938217;29;20464;-75
2021/06/01 05:42:21;;;;;;;4.18;1.67;;;16.20;60.90;;;;;;4954685;29;20096;-76
2021/06/01 05:44:47;;;;;;;4.15;1.90;;;16.20;60.90;;;;;;4955217;29;20129;-75
2021/06/01 05:47:16;;;;;;;4.95;2.45;;;16.30;61.40;;;;;;4954616;29;20034;-75
2021/06/01 05:49:42;;;;;;;3.63;1.88;;;16.30;61.10;;;;;;4937672;29;20031;-75
2021/06/01 05:52:09;;;;;;;3.05;1.75;;;16.30;60.60;;;;;;4954472;29;20019;-75
2021/06/01 05:54:35;;;;;;;4.53;2.15;;;16.30;60.70;;;;;;4954968;29;20031;-74
2021/06/01 05:57:00;;;;;;;5.57;1.90;;;16.30;60.40;;;;;;4954986;29;20027;-76
2021/06/01 05:59:26;;;;;;;5.25;2.03;;;16.40;60.30;;;;;;4954273;29;20051;-75
2021/06/01 06:01:52;;;;;;;4.60;2.05;;;16.40;60.80;;;;;;4937273;29;20023;-75
2021/06/01 06:04:17;;;;;;;5.15;2.33;;;16.40;60.60;;;;;;4954204;29;20029;-75
2021/06/01 06:06:43;;;;;;;87.15;10.65;;;16.50;61.10;;;;;;4953967;28;20106;-76
2021/06/01 06:09:09;;;;;;;34.80;6.75;;;16.50;61.20;;;;;;4936754;29;20404;-75
2021/06/01 06:11:34;;;;;;;12.35;2.78;;;16.50;61.30;;;;;;4954689;29;20038;-75
2021/06/01 06:14:00;;;;;;;5.70;2.13;;;16.50;61.20;;;;;;4937642;29;20023;-75
2021/06/01 06:16:30;;;;;;;8.38;2.30;;;16.60;61.30;;;;;;4936781;29;20396;-75
2021/06/01 06:18:59;;;;;;;10.68;2.28;;;16.60;61.80;;;;;;4937169;29;20102;-76
2021/06/01 06:21:26;;;;;;;4.93;2.60;;;16.70;62.00;;;;;;4936346;29;20028;-75
2021/06/01 06:23:51;;;;;;;3.42;2.03;;;16.70;61.80;;;;;;4954069;29;20029;-76
2021/06/01 06:26:18;;;;;;;5.78;2.35;;;16.70;61.80;;;;;;4936410;29;20055;-76
2021/06/01 06:28:43;;;;;;;5.65;2.40;;;16.70;61.90;;;;;;4954349;29;20134;-75
2021/06/01 06:31:09;;;;;;;3.50;2.00;;;16.70;62.00;;;;;;4954754;29;20030;-75
2021/06/01 06:33:35;;;;;;;4.63;2.22;;;16.70;62.20;;;;;;4954479;29;20061;-75
2021/06/01 06:36:01;;;;;;;3.67;1.98;;;16.70;62.50;;;;;;4936981;29;20182;-76
2021/06/01 06:38:26;;;;;;;4.05;2.28;;;16.80;62.70;;;;;;4953720;29;20015;-74
2021/06/01 06:43:27;;;;;;;4.05;2.00;;;16.90;62.60;;;;;;4953606;29;20130;-76
2021/06/01 06:45:53;;;;;;;3.83;2.10;;;16.90;62.60;;;;;;4936935;29;20468;-75
2021/06/01 06:48:19;;;;;;;6.78;2.53;;;16.90;62.50;;;;;;4953699;29;20023;-76
2021/06/01 06:50:45;;;;;;;5.13;2.25;;;17.00;62.50;;;;;;4954251;29;20047;-76
2021/06/01 06:53:10;;;;;;;4.55;2.40;;;17.00;62.60;;;;;;4954408;29;20019;-75
2021/06/01 06:55:36;;;;;;;3.78;2.25;;;17.00;62.80;;;;;;4956552;29;20060;-75
2021/06/01 06:58:02;;;;;;;10.68;2.47;;;17.10;62.90;;;;;;4940430;29;20122;-75
2021/06/01 07:00:29;;;;;;;5.57;1.88;;;17.10;62.90;;;;;;4936820;29;20051;-75
2021/06/01 07:02:56;;;;;;;5.18;2.30;;;17.10;62.90;;;;;;4953832;29;20129;-75
2021/06/01 07:05:22;;;;;;;8.90;2.70;;;17.10;62.80;;;;;;4952993;29;20523;-74
2021/06/01 07:07:51;;;;;;;5.07;2.30;;;17.10;62.50;;;;;;4954116;29;20043;-75
2021/06/01 07:10:18;;;;;;;4.57;2.38;;;17.20;62.60;;;;;;4953254;29;20031;-76
2021/06/01 07:12:44;;;;;;;6.28;2.85;;;17.20;62.50;;;;;;4953884;29;20027;-75
2021/06/01 07:15:30;;;;;;;11.27;3.50;;;17.30;62.80;;;;;;4953439;29;20436;-76
2021/06/01 07:17:59;;;;;;;4.43;2.20;;;17.30;63.00;;;;;;4953422;28;20023;-76
2021/06/01 07:20:30;;;;;;;5.47;2.70;;;17.40;62.80;;;;;;4952827;29;20031;-76
2021/06/01 07:22:56;;;;;;;3.60;1.98;;;17.40;62.80;;;;;;4953858;29;20030;-76
2021/06/01 07:25:22;;;;;;;5.90;2.47;;;17.40;62.80;;;;;;4935783;29;20028;-76
2021/06/01 07:27:47;;;;;;;4.25;2.13;;;17.50;62.20;;;;;;4952993;29;20373;-76
2021/06/01 07:30:14;;;;;;;4.47;2.35;;;17.50;62.10;;;;;;4935363;29;20031;-76
2021/06/01 07:32:39;;;;;;;4.88;2.30;;;17.50;62.20;;;;;;4935618;29;20031;-75
2021/06/01 07:35:06;;;;;;;4.72;2.70;;;17.60;62.90;;;;;;4952450;29;20031;-75
2021/06/01 07:37:31;;;;;;;7.15;2.22;;;17.60;62.00;;;;;;4934833;29;20114;-75
2021/06/01 07:39:57;;;;;;;6.35;2.67;;;17.70;62.10;;;;;;4952725;29;20118;-76
2021/06/01 07:42:23;;;;;;;11.95;2.50;;;17.70;62.00;;;;;;4952366;29;20115;-75
2021/06/01 07:44:49;;;;;;;5.95;2.30;;;17.80;62.10;;;;;;4952918;29;20035;-75
2021/06/01 07:47:15;;;;;;;4.50;2.33;;;17.80;62.00;;;;;;4935458;29;20087;-77
2021/06/01 07:49:40;;;;;;;6.88;2.20;;;17.90;61.80;;;;;;4935289;29;20035;-75
2021/06/01 07:52:06;;;;;;;9.38;2.60;;;17.90;61.60;;;;;;4935344;29;20031;-75
2021/06/01 07:54:33;;;;;;;15.18;3.50;;;17.90;61.60;;;;;;4951826;28;20473;-75
2021/06/01 07:56:59;;;;;;;18.77;3.28;;;18.00;61.80;;;;;;4952561;29;20443;-75
2021/06/01 07:59:25;;;;;;;13.48;3.92;;;18.00;61.80;;;;;;4951850;29;20114;-75
2021/06/01 08:01:50;;;;;;;5.38;2.40;;;18.00;62.00;;;;;;4935181;29;20421;-75
2021/06/01 08:04:16;;;;;;;5.88;2.35;;;18.10;62.00;;;;;;4952156;29;20034;-75
2021/06/01 08:06:42;;;;;;;7.20;2.88;;;18.20;61.90;;;;;;4952533;29;20027;-75
2021/06/01 08:09:08;;;;;;;8.02;3.03;;;18.20;61.60;;;;;;4935232;29;20490;-76
2021/06/01 08:11:34;;;;;;;6.53;2.40;;;18.20;61.40;;;;;;4952333;29;20032;-75
2021/06/01 08:14:00;;;;;;;5.82;2.30;;;18.30;61.10;;;;;;4935578;29;20019;-75
2021/06/01 08:16:26;;;;;;;4.50;2.13;;;18.30;60.80;;;;;;4952093;29;20027;-75
2021/06/01 08:19:07;;;;;;;7.15;2.83;;;18.40;60.90;;;;;;4952262;29;20074;-76
2021/06/01 08:21:56;;;;;;;5.03;2.50;;;18.50;60.60;;;;;;4934589;29;20159;-74
2021/06/01 08:24:22;;;;;;;6.10;2.30;;;18.50;60.50;;;;;;4934468;29;20379;-76
2021/06/01 08:26:50;;;;;;;4.80;2.25;;;18.60;60.60;;;;;;4894372;29;1200910;-76
2021/06/01 08:29:15;;;;;;;6.00;2.45;;;18.60;60.40;;;;;;4953130;28;20070;-76
2021/06/01 08:31:42;;;;;;;4.55;2.38;;;18.70;60.20;;;;;;4956103;29;20062;-75
2021/06/01 08:34:08;;;;;;;6.13;2.50;;;18.70;60.00;;;;;;4956359;29;20150;-75
2021/06/01 08:36:34;;;;;;;6.43;2.60;;;18.80;59.60;;;;;;4938850;29;20028;-75
2021/06/01 08:39:00;;;;;;;4.78;2.33;;;18.90;59.30;;;;;;4957045;29;20108;-76
2021/06/01 08:41:26;;;;;;;13.90;3.00;;;19.00;59.20;;;;;;4938672;29;20134;-77
2021/06/01 08:43:53;;;;;;;6.97;2.55;;;19.00;59.30;;;;;;4956663;29;20446;-75
2021/06/01 08:46:24;;;;;;;5.93;2.25;;;19.10;59.20;;;;;;4956701;29;20364;-76
2021/06/01 08:48:52;;;;;;;5.85;2.30;;;19.20;59.20;;;;;;4939104;29;20027;-75
2021/06/01 08:51:20;;;;;;;7.57;2.47;;;19.20;59.30;;;;;;4939383;29;20114;-76
2021/06/01 08:53:47;;;;;;;4.40;2.33;;;19.20;59.20;;;;;;4956529;29;20027;-75
2021/06/01 08:56:13;;;;;;;6.35;2.38;;;19.30;59.00;;;;;;4939022;29;20042;-75
2021/06/01 08:58:41;;;;;;;4.75;2.40;;;19.30;58.60;;;;;;4938034;29;20103;-76
2021/06/01 09:01:06;;;;;;;5.40;2.80;;;19.40;58.40;;;;;;4938588;29;20023;-76
2021/06/01 09:03:33;;;;;;;5.18;2.50;;;19.50;57.80;;;;;;4955166;29;20028;-76
2021/06/01 09:08:41;;;;;;;4.13;1.95;;;19.70;56.90;;;;;;4955396;29;20074;-76
2021/06/01 09:11:31;;;;;;;6.22;3.58;;;19.80;57.10;;;;;;4956039;29;20035;-76
2021/06/01 09:22:35;;;;;;;6.05;3.00;;;20.00;55.80;;;;;;4955502;29;20043;-76
2021/06/01 09:25:16;;;;;;;5.05;2.70;;;20.10;56.00;;;;;;4938690;29;20345;-76
2021/06/01 09:27:52;;;;;;;4.97;2.33;;;20.10;56.10;;;;;;4937517;29;20439;-76
2021/06/01 09:30:40;;;;;;;5.20;2.13;;;20.10;55.90;;;;;;4955494;29;20027;-77
2021/06/01 09:33:18;;;;;;;4.55;2.13;;;20.10;55.80;;;;;;4938607;29;20027;-77
2021/06/01 09:35:52;;;;;;;6.47;2.30;;;20.10;55.10;;;;;;4954736;29;20034;-75
2021/06/01 09:38:20;;;;;;;4.57;2.15;;;20.10;54.80;;;;;;4938232;29;20420;-77
2021/06/01 09:40:47;;;;;;;5.07;2.53;;;20.10;54.80;;;;;;4937206;28;20019;-76
2021/06/01 09:43:15;;;;;;;15.30;3.70;;;20.20;54.80;;;;;;4954800;29;20038;-75
2021/06/01 09:45:44;;;;;;;5.03;2.00;;;20.30;54.90;;;;;;4937420;29;20027;-76
2021/06/01 09:48:11;;;;;;;4.55;2.10;;;20.30;54.80;;;;;;4955243;29;20102;-75
2021/06/01 09:55:48;;;;;;;4.80;1.85;;;20.40;52.70;;;;;;4954592;29;20098;-76
2021/06/01 09:58:30;;;;;;;4.30;2.10;;;20.50;52.70;;;;;;4954945;29;20039;-76
2021/06/01 10:00:58;;;;;;;3.83;1.95;;;20.50;51.90;;;;;;4937731;29;20028;-76
2021/06/01 10:03:33;;;;;;;4.07;1.95;;;20.60;51.60;;;;;;4937653;29;20027;-76
2021/06/01 10:05:59;;;;;;;5.20;2.17;;;20.60;51.10;;;;;;4954915;29;20051;-75
2021/06/01 10:08:26;;;;;;;4.07;2.08;;;20.60;50.90;;;;;;4954226;29;20055;-75
2021/06/01 10:10:52;;;;;;;4.30;1.95;;;20.70;50.50;;;;;;4954846;29;20058;-76
2021/06/01 10:13:18;;;;;;;13.85;1.95;;;20.90;50.40;;;;;;4954572;29;20460;-75
2021/06/01 10:15:44;;;;;;;2.78;1.90;;;20.90;49.70;;;;;;4953926;29;20027;-76
2021/06/01 10:18:12;;;;;;;3.70;1.65;;;20.90;48.80;;;;;;4937353;29;20030;-76
2021/06/01 10:20:40;;;;;;;2.38;1.80;;;21.00;48.30;;;;;;4936811;29;20483;-75
2021/06/01 10:23:07;;;;;;;2.75;1.70;;;21.20;47.10;;;;;;4937090;29;20066;-75
2021/06/01 10:25:33;;;;;;;2.88;1.42;;;21.30;46.80;;;;;;4953832;29;20125;-74
2021/06/01 10:28:03;;;;;;;3.50;1.98;;;21.40;46.70;;;;;;4954589;29;20123;-76
2021/06/01 10:30:31;;;;;;;3.60;1.73;;;21.50;47.00;;;;;;4936391;29;20032;-76
2021/06/01 10:33:03;;;;;;;6.90;2.10;;;21.50;47.30;;;;;;4954106;29;20391;-74
2021/06/01 10:36:17;;;;;;;4.30;1.75;;;21.50;47.20;;;;;;4936383;29;20483;-76
2021/06/01 10:52:25;;;;;;;4.22;1.90;;;21.90;45.10;;;;;;4953781;28;20039;-75
2021/06/01 10:55:07;;;;;;;3.63;1.52;;;22.00;45.30;;;;;;4935850;29;20122;-76
2021/06/01 10:58:08;;;;;;;4.60;2.00;;;22.00;45.30;;;;;;4953509;29;20073;-76
2021/06/01 11:03:10;;;;;;;3.03;1.70;;;22.20;44.50;;;;;;4942249;29;20439;-76
2021/06/01 11:05:55;;;;;;;2.88;1.70;;;22.20;44.60;;;;;;4952907;29;20024;-76
2021/06/01 11:08:45;;;;;;;2.17;1.50;;;22.40;44.50;;;;;;4953642;29;20490;-76
2021/06/01 11:11:32;;;;;;;3.58;1.55;;;22.40;44.30;;;;;;4936440;29;20107;-76
2021/06/01 11:14:23;;;;;;;2.80;1.58;;;22.60;43.70;;;;;;4936232;29;20114;-77
2021/06/01 11:16:53;;;;;;;4.22;1.80;;;22.80;43.00;;;;;;4952611;28;20055;-76
2021/06/01 11:19:20;;;;;;;2.30;1.50;;;23.00;42.20;;;;;;4953815;29;20031;-76
2021/06/01 11:22:02;;;;;;;3.17;1.58;;;23.20;41.50;;;;;;4953079;29;20094;-77
2021/06/01 11:35:20;;;;;;;3.33;1.35;;;24.10;41.00;;;;;;4953562;29;20050;-75
2021/06/01 11:38:00;;;;;;;2.47;1.20;;;24.30;39.70;;;;;;4935602;29;20023;-76
2021/06/01 11:43:08;;;;;;;2.58;1.50;;;24.70;38.70;;;;;;4953382;29;20126;-76
2021/06/01 11:51:29;;;;;;;4.00;1.20;;;25.20;38.50;;;;;;4953214;29;20036;-76
2021/06/01 11:53:56;;;;;;;2.97;1.42;;;25.30;37.50;;;;;;4935479;29;20043;-76
2021/06/01 11:56:36;;;;;;;2.28;0.95;;;25.40;36.80;;;;;;4953327;29;20094;-77
2021/06/01 12:20:49;;;;;;;2.28;1.50;;;26.60;35.80;;;;;;4956281;29;20042;-75
2021/06/01 12:23:30;;;;;;;3.60;1.33;;;26.70;34.60;;;;;;4956514;29;20377;-77
2021/06/01 12:26:27;;;;;;;2.45;1.60;;;26.70;33.90;;;;;;4938644;29;20454;-76
2021/06/01 12:32:06;;;;;;;2.35;1.60;;;26.90;35.60;;;;;;4955704;29;20494;-77
2021/06/01 12:43:12;;;;;;;1.92;1.25;;;27.40;34.70;;;;;;4956541;29;20436;-76
2021/06/01 13:05:33;;;;;;;4.47;1.85;;;28.30;33.80;;;;;;4955261;29;20034;-77
2021/06/01 13:21:55;;;;;;;2.55;1.50;;;28.80;34.60;;;;;;4956065;29;20539;-77
2021/06/01 13:31:23;;;;;;;2.22;1.25;;;29.20;35.30;;;;;;4955083;29;20070;-76
2021/06/01 13:38:49;;;;;;;5.13;1.60;;;29.40;34.20;;;;;;4955509;29;20384;-77
2021/06/01 13:47:00;;;;;;;1.75;1.27;;;30.00;32.80;;;;;;4954687;29;20054;-76
2021/06/01 13:49:40;;;;;;;2.40;1.55;;;30.30;32.80;;;;;;4937873;29;20023;-77
2021/06/01 14:00:36;;;;;;;1.73;1.20;;;32.40;31.90;;;;;;4955044;29;20360;-77
2021/06/01 14:29:56;;;;;;;2.03;1.40;;;38.30;26.70;;;;;;4954051;29;20171;-77
2021/06/01 15:49:41;;;;;;;4.05;1.17;;;43.10;23.10;;;;;;4957487;29;20130;-76
2021/06/01 16:22:24;;;;;;;3.20;1.50;;;39.50;24.20;;;;;;4956202;29;20368;-75
2021/06/01 16:30:47;;;;;;;3.90;1.40;;;35.90;26.10;;;;;;4976097;28;20114;-76
2021/06/01 17:03:27;;;;;;;3.00;0.98;;;30.10;28.50;;;;;;4975674;28;20097;-76
2021/06/01 17:06:02;;;;;;;2.17;1.40;;;29.80;29.20;;;;;;4975266;28;20066;-77
2021/06/01 17:11:18;;;;;;;2.13;1.00;;;29.50;29.90;;;;;;4974633;28;20050;-74
2021/06/01 17:13:54;;;;;;;1.63;1.15;;;29.40;30.40;;;;;;4975410;28;20531;-76
2021/06/01 17:16:44;;;;;;;1.70;1.13;;;29.30;30.40;;;;;;4973205;28;20023;-76
2021/06/01 17:22:23;;;;;;;2.38;1.30;;;29.00;30.00;;;;;;4975117;28;20026;-76
2021/06/01 17:30:40;;;;;;;3.55;1.60;;;28.70;30.70;;;;;;4974097;28;20045;-76
2021/06/01 17:36:03;;;;;;;2.55;1.30;;;28.40;31.40;;;;;;4974676;28;20056;-75
2021/06/01 17:38:29;;;;;;;3.70;1.55;;;28.30;31.20;;;;;;4973263;28;20019;-76
2021/06/01 17:40:58;;;;;;;2.58;1.25;;;28.20;31.20;;;;;;4973383;28;20037;-75
2021/06/01 17:43:30;;;;;;;2.90;1.10;;;28.10;31.50;;;;;;4974112;28;20035;-76
2021/06/01 17:45:56;;;;;;;1.40;1.13;;;28.00;31.80;;;;;;4974426;28;20042;-75
2021/06/01 17:51:29;;;;;;;2.55;1.25;;;27.80;32.10;;;;;;4921155;29;20148;-76
2021/06/01 17:53:58;;;;;;;1.60;1.10;;;27.70;32.20;;;;;;4914767;29;20417;-75
2021/06/01 17:56:25;;;;;;;2.20;1.23;;;27.60;32.30;;;;;;4898020;29;20465;-76
2021/06/01 17:58:52;;;;;;;1.40;1.30;;;27.50;32.10;;;;;;4898680;29;20412;-76
2021/06/01 18:01:19;;;;;;;1.75;1.02;;;27.40;32.20;;;;;;4917203;29;20544;-76
2021/06/01 18:03:50;;;;;;;1.92;1.23;;;27.30;32.80;;;;;;4916507;29;20123;-79
2021/06/01 18:06:17;;;;;;;2.00;1.13;;;27.30;33.00;;;;;;4913376;29;20380;-77
2021/06/01 18:08:57;;;;;;;2.47;1.38;;;27.20;33.60;;;;;;4930955;29;20067;-77
2021/06/01 19:24:28;;;;;;;2.03;1.30;;;24.80;40.30;;;;;;4939664;29;20399;-77
2021/06/01 19:51:21;;;;;;;5.03;1.48;;;23.90;44.10;;;;;;4947326;29;20050;-76
2021/06/01 19:53:49;;;;;;;3.80;2.30;;;23.90;44.30;;;;;;4930203;29;20041;-76
2021/06/01 19:56:15;;;;;;;4.30;1.80;;;23.80;44.70;;;;;;4940603;29;20130;-78
2021/06/01 19:58:42;;;;;;;5.15;1.70;;;23.70;44.90;;;;;;4930264;29;20503;-77
2021/06/01 20:01:09;;;;;;;2.45;1.70;;;23.60;45.40;;;;;;4945524;29;20034;-76
2021/06/01 20:03:35;;;;;;;4.28;1.60;;;23.60;45.30;;;;;;4948824;29;20023;-77
2021/06/01 20:06:04;;;;;;;5.57;1.60;;;23.50;45.60;;;;;;4939288;29;20425;-76
2021/06/01 20:08:30;;;;;;;2.33;1.50;;;23.40;45.80;;;;;;4917004;29;20343;-76
2021/06/01 20:10:56;;;;;;;3.30;1.60;;;23.40;46.10;;;;;;4930317;29;20027;-75
2021/06/01 20:13:23;;;;;;;3.47;1.90;;;23.30;46.00;;;;;;4908587;28;20099;-76
2021/06/01 20:15:49;;;;;;;2.88;1.70;;;23.20;46.20;;;;;;4935687;28;20054;-76